This is the latest recevied weather packets stored in our database for station/object OH2TH. If no packets are shown the sender has not sent any weather packets the latest 10 day(s).
| Time | Temp. | Humidity | Pressure | Rain* | Wind** | Luminosity | Snow |
|---|---|---|---|---|---|---|---|
| 1787988601 | 17.78° C | 78% | 1020 hPa | 224.54 mm | - | - | - |
| 1787987701 | 17.78° C | 76% | 1020 hPa | 224.54 mm | - | - | - |
| 1787986801 | 17.78° C | 76% | 1020 hPa | 224.54 mm | - | - | - |
| 1787985901 | 17.22° C | 77% | 1020 hPa | 224.54 mm | - | - | - |
| 1787985001 | 17.22° C | 80% | 1020 hPa | 224.54 mm | - | - | - |
| 1787983205 | 17.22° C | 82% | 1020 hPa | 224.54 mm | - | - | - |
| 1787982305 | 16.11° C | 88% | 1020 hPa | 224.54 mm | - | - | - |
| 1787981404 | 15° C | 99% | 1020 hPa | 224.54 mm | - | - | - |
| 1787980503 | 15° C | 98% | 1020 hPa | 224.54 mm | - | - | - |
| 1787979603 | 13.89° C | 98% | 1020 hPa | 224.54 mm | - | - | - |
| 1787978702 | 13.89° C | 98% | 1020 hPa | 224.54 mm | - | - | - |
| 1787977802 | 12.78° C | 98% | 1020 hPa | 224.54 mm | - | - | - |
| 1787976901 | 12.78° C | 98% | 1020 hPa | 224.54 mm | - | - | - |
| 1787976005 | 12.78° C | 99% | 1020 hPa | 224.54 mm | - | - | - |
| 1787975104 | 12.78° C | 99% | 1020 hPa | 224.54 mm | - | - | - |
| 1787974203 | 12.78° C | 98% | 1020 hPa | 224.54 mm | - | - | - |
| 1787973302 | 12.78° C | 98% | 1020 hPa | 224.54 mm | - | - | - |
| 1787972402 | 12.22° C | 98% | 1020 hPa | 224.54 mm | - | - | - |
| 1787971501 | 12.22° C | 98% | 1020 hPa | 224.54 mm | - | - | - |
| 1787970604 | 12.22° C | 98% | 1020 hPa | 224.54 mm | - | - | - |
| 1787969704 | 12.22° C | 98% | 1020 hPa | 224.54 mm | - | - | - |
| 1787968803 | 12.78° C | 98% | 1020 hPa | 224.54 mm | - | - | - |
| 1787967903 | 12.78° C | 98% | 1020 hPa | 224.54 mm | - | - | - |
| 1787967001 | 12.78° C | 98% | 1020 hPa | 224.54 mm | - | - | - |
| 1787966101 | 12.78° C | 98% | 1020 hPa | 224.54 mm | - | - | - |
* Rain latest 24 hours (hover to see other rain measurements)
** Current wind speed in m/s (hover to see current wind gust speed)